sensor_id;sensor_type;location;lat;lon;timestamp;P1;durP1;ratioP1;P2;durP2;ratioP2
49946;SDS011;35839;48.662;13.300;2022-12-18T06:05:06;23.23;;;10.93;;
49946;SDS011;35839;48.662;13.300;2022-12-18T06:07:32;21.70;;;9.60;;
49946;SDS011;35839;48.662;13.300;2022-12-18T06:09:57;23.67;;;9.60;;
49946;SDS011;35839;48.662;13.300;2022-12-18T06:12:22;25.77;;;10.50;;
49946;SDS011;35839;48.662;13.300;2022-12-18T06:14:48;25.17;;;11.27;;
49946;SDS011;35839;48.662;13.300;2022-12-18T06:17:13;27.30;;;10.07;;
49946;SDS011;35839;48.662;13.300;2022-12-18T06:19:38;24.90;;;11.33;;
49946;SDS011;35839;48.662;13.300;2022-12-18T06:22:04;28.83;;;12.07;;
49946;SDS011;35839;48.662;13.300;2022-12-18T06:24:29;22.50;;;10.13;;
49946;SDS011;35839;48.662;13.300;2022-12-18T06:26:55;29.27;;;11.10;;
49946;SDS011;35839;48.662;13.300;2022-12-18T06:29:20;33.77;;;11.57;;
49946;SDS011;35839;48.662;13.300;2022-12-18T06:31:45;27.87;;;11.63;;
49946;SDS011;35839;48.662;13.300;2022-12-18T06:34:11;32.33;;;12.00;;
49946;SDS011;35839;48.662;13.300;2022-12-18T06:36:36;33.90;;;12.40;;
49946;SDS011;35839;48.662;13.300;2022-12-18T06:39:01;43.17;;;13.23;;
49946;SDS011;35839;48.662;13.300;2022-12-18T06:41:27;32.33;;;13.60;;
49946;SDS011;35839;48.662;13.300;2022-12-18T06:43:52;42.90;;;13.93;;
49946;SDS011;35839;48.662;13.300;2022-12-18T06:46:18;42.20;;;13.73;;
49946;SDS011;35839;48.662;13.300;2022-12-18T06:48:46;47.60;;;13.37;;
49946;SDS011;35839;48.662;13.300;2022-12-18T06:51:11;34.37;;;11.80;;
49946;SDS011;35839;48.662;13.300;2022-12-18T06:53:37;43.70;;;12.97;;
49946;SDS011;35839;48.662;13.300;2022-12-18T06:56:03;61.87;;;17.97;;
49946;SDS011;35839;48.662;13.300;2022-12-18T06:58:30;46.53;;;16.50;;
49946;SDS011;35839;48.662;13.300;2022-12-18T07:01:02;53.57;;;16.80;;
49946;SDS011;35839;48.662;13.300;2022-12-18T07:03:29;42.93;;;16.07;;
49946;SDS011;35839;48.662;13.300;2022-12-18T07:05:56;44.03;;;15.70;;
49946;SDS011;35839;48.662;13.300;2022-12-18T07:08:21;40.23;;;15.50;;
49946;SDS011;35839;48.662;13.300;2022-12-18T07:10:46;47.40;;;16.47;;
49946;SDS011;35839;48.662;13.300;2022-12-18T07:13:14;39.53;;;14.83;;
49946;SDS011;35839;48.662;13.300;2022-12-18T07:15:40;32.10;;;13.43;;
49946;SDS011;35839;48.662;13.300;2022-12-18T07:18:05;36.70;;;14.93;;
49946;SDS011;35839;48.662;13.300;2022-12-18T07:20:30;36.40;;;15.50;;
49946;SDS011;35839;48.662;13.300;2022-12-18T07:22:55;30.57;;;13.63;;
49946;SDS011;35839;48.662;13.300;2022-12-18T07:25:21;35.03;;;14.27;;
49946;SDS011;35839;48.662;13.300;2022-12-18T07:27:46;32.80;;;13.90;;
49946;SDS011;35839;48.662;13.300;2022-12-18T07:30:11;26.83;;;10.93;;
49946;SDS011;35839;48.662;13.300;2022-12-18T07:32:37;26.93;;;11.47;;
49946;SDS011;35839;48.662;13.300;2022-12-18T07:35:02;27.83;;;11.50;;
49946;SDS011;35839;48.662;13.300;2022-12-18T07:37:27;26.53;;;11.47;;
49946;SDS011;35839;48.662;13.300;2022-12-18T07:39:53;26.30;;;12.27;;
49946;SDS011;35839;48.662;13.300;2022-12-18T07:42:18;27.63;;;11.40;;
49946;SDS011;35839;48.662;13.300;2022-12-18T07:44:56;26.93;;;11.90;;
49946;SDS011;35839;48.662;13.300;2022-12-18T07:47:21;36.73;;;12.50;;
49946;SDS011;35839;48.662;13.300;2022-12-18T07:49:47;31.23;;;13.27;;
49946;SDS011;35839;48.662;13.300;2022-12-18T07:52:12;35.97;;;15.43;;
49946;SDS011;35839;48.662;13.300;2022-12-18T07:54:38;38.13;;;13.80;;
49946;SDS011;35839;48.662;13.300;2022-12-18T07:57:03;32.13;;;11.50;;
49946;SDS011;35839;48.662;13.300;2022-12-18T07:59:29;31.33;;;13.40;;
49946;SDS011;35839;48.662;13.300;2022-12-18T08:01:54;34.37;;;14.00;;
49946;SDS011;35839;48.662;13.300;2022-12-18T08:04:20;29.63;;;13.13;;
49946;SDS011;35839;48.662;13.300;2022-12-18T08:06:45;32.87;;;14.43;;
49946;SDS011;35839;48.662;13.300;2022-12-18T08:09:10;36.33;;;13.27;;
49946;SDS011;35839;48.662;13.300;2022-12-18T08:11:36;34.93;;;12.93;;
49946;SDS011;35839;48.662;13.300;2022-12-18T08:14:01;22.57;;;11.27;;
49946;SDS011;35839;48.662;13.300;2022-12-18T08:16:27;28.67;;;11.90;;
49946;SDS011;35839;48.662;13.300;2022-12-18T08:18:53;38.87;;;12.17;;
49946;SDS011;35839;48.662;13.300;2022-12-18T08:21:20;42.90;;;15.40;;
49946;SDS011;35839;48.662;13.300;2022-12-18T08:23:48;45.78;;;11.38;;
49946;SDS011;35839;48.662;13.300;2022-12-18T08:26:14;50.73;;;16.97;;
49946;SDS011;35839;48.662;13.300;2022-12-18T08:28:40;58.60;;;17.63;;
49946;SDS011;35839;48.662;13.300;2022-12-18T08:31:06;86.13;;;19.30;;
49946;SDS011;35839;48.662;13.300;2022-12-18T08:33:32;67.83;;;19.40;;
49946;SDS011;35839;48.662;13.300;2022-12-18T08:36:00;54.33;;;19.83;;
49946;SDS011;35839;48.662;13.300;2022-12-18T08:38:27;95.35;;;20.95;;
49946;SDS011;35839;48.662;13.300;2022-12-18T08:41:02;57.63;;;19.37;;
49946;SDS011;35839;48.662;13.300;2022-12-18T08:43:29;64.57;;;19.60;;
49946;SDS011;35839;48.662;13.300;2022-12-18T08:46:13;122.67;;;20.87;;
49946;SDS011;35839;48.662;13.300;2022-12-18T08:48:42;64.38;;;22.58;;
49946;SDS011;35839;48.662;13.300;2022-12-18T08:51:08;85.77;;;25.00;;
49946;SDS011;35839;48.662;13.300;2022-12-18T08:53:34;52.53;;;22.53;;
49946;SDS011;35839;48.662;13.300;2022-12-18T08:56:00;68.30;;;22.53;;
49946;SDS011;35839;48.662;13.300;2022-12-18T08:58:25;74.70;;;22.23;;
49946;SDS011;35839;48.662;13.300;2022-12-18T09:00:51;64.43;;;24.37;;
49946;SDS011;35839;48.662;13.300;2022-12-18T09:03:17;57.97;;;21.23;;
49946;SDS011;35839;48.662;13.300;2022-12-18T09:05:43;63.93;;;22.70;;
49946;SDS011;35839;48.662;13.300;2022-12-18T09:08:10;64.27;;;22.67;;
49946;SDS011;35839;48.662;13.300;2022-12-18T09:10:43;61.53;;;20.60;;
49946;SDS011;35839;48.662;13.300;2022-12-18T09:13:10;64.30;;;21.27;;
49946;SDS011;35839;48.662;13.300;2022-12-18T09:15:46;67.20;;;22.73;;
49946;SDS011;35839;48.662;13.300;2022-12-18T09:18:14;73.57;;;22.37;;
49946;SDS011;35839;48.662;13.300;2022-12-18T09:20:40;101.30;;;25.93;;
49946;SDS011;35839;48.662;13.300;2022-12-18T09:23:05;73.67;;;26.37;;
49946;SDS011;35839;48.662;13.300;2022-12-18T09:25:31;93.37;;;23.90;;
49946;SDS011;35839;48.662;13.300;2022-12-18T09:28:19;62.97;;;23.07;;
49946;SDS011;35839;48.662;13.300;2022-12-18T09:30:47;114.30;;;23.37;;
49946;SDS011;35839;48.662;13.300;2022-12-18T09:33:14;74.22;;;21.33;;
49946;SDS011;35839;48.662;13.300;2022-12-18T09:35:40;58.43;;;22.40;;
49946;SDS011;35839;48.662;13.300;2022-12-18T09:38:08;63.30;;;21.53;;
49946;SDS011;35839;48.662;13.300;2022-12-18T09:40:41;58.55;;;19.88;;
49946;SDS011;35839;48.662;13.300;2022-12-18T09:43:23;42.67;;;16.08;;
49946;SDS011;35839;48.662;13.300;2022-12-18T09:45:58;59.27;;;21.03;;
49946;SDS011;35839;48.662;13.300;2022-12-18T09:48:29;52.63;;;20.10;;
49946;SDS011;35839;48.662;13.300;2022-12-18T09:51:04;85.77;;;19.57;;
49946;SDS011;35839;48.662;13.300;2022-12-18T09:53:35;55.53;;;18.83;;
49946;SDS011;35839;48.662;13.300;2022-12-18T09:56:06;58.07;;;21.13;;
49946;SDS011;35839;48.662;13.300;2022-12-18T09:58:39;50.97;;;19.30;;
49946;SDS011;35839;48.662;13.300;2022-12-18T10:01:11;42.03;;;16.90;;
49946;SDS011;35839;48.662;13.300;2022-12-18T10:03:46;42.30;;;18.27;;
49946;SDS011;35839;48.662;13.300;2022-12-18T10:11:56;50.60;;;18.67;;
49946;SDS011;35839;48.662;13.300;2022-12-18T10:14:40;49.60;;;17.17;;
49946;SDS011;35839;48.662;13.300;2022-12-18T10:17:22;51.60;;;19.53;;
49946;SDS011;35839;48.662;13.300;2022-12-18T10:20:13;44.77;;;17.83;;
49946;SDS011;35839;48.662;13.300;2022-12-18T10:22:53;46.87;;;18.53;;
49946;SDS011;35839;48.662;13.300;2022-12-18T10:28:13;37.97;;;16.50;;
49946;SDS011;35839;48.662;13.300;2022-12-18T10:30:40;38.93;;;17.03;;
49946;SDS011;35839;48.662;13.300;2022-12-18T10:33:08;36.97;;;17.27;;
49946;SDS011;35839;48.662;13.300;2022-12-18T10:35:37;41.00;;;17.10;;
49946;SDS011;35839;48.662;13.300;2022-12-18T10:40:47;47.73;;;19.10;;
49946;SDS011;35839;48.662;13.300;2022-12-18T10:43:14;40.23;;;16.87;;
49946;SDS011;35839;48.662;13.300;2022-12-18T10:45:41;40.43;;;18.93;;
49946;SDS011;35839;48.662;13.300;2022-12-18T10:48:19;39.60;;;18.07;;
49946;SDS011;35839;48.662;13.300;2022-12-18T10:50:50;33.45;;;15.70;;
49946;SDS011;35839;48.662;13.300;2022-12-18T10:53:25;31.87;;;14.80;;
49946;SDS011;35839;48.662;13.300;2022-12-18T10:55:53;30.73;;;14.37;;
49946;SDS011;35839;48.662;13.300;2022-12-18T10:58:22;31.23;;;14.57;;
49946;SDS011;35839;48.662;13.300;2022-12-18T11:01:06;35.38;;;15.23;;
49946;SDS011;35839;48.662;13.300;2022-12-18T11:06:21;27.47;;;12.87;;
49946;SDS011;35839;48.662;13.300;2022-12-18T11:11:54;28.37;;;12.17;;
49946;SDS011;35839;48.662;13.300;2022-12-18T11:14:22;26.97;;;12.83;;
49946;SDS011;35839;48.662;13.300;2022-12-18T11:16:50;26.93;;;13.23;;
49946;SDS011;35839;48.662;13.300;2022-12-18T11:19:21;30.27;;;13.23;;
49946;SDS011;35839;48.662;13.300;2022-12-18T11:22:03;27.43;;;11.77;;
49946;SDS011;35839;48.662;13.300;2022-12-18T11:24:49;25.83;;;11.27;;
49946;SDS011;35839;48.662;13.300;2022-12-18T11:27:19;27.27;;;11.70;;
49946;SDS011;35839;48.662;13.300;2022-12-18T11:29:45;28.83;;;12.57;;
49946;SDS011;35839;48.662;13.300;2022-12-18T11:35:00;28.80;;;11.90;;
49946;SDS011;35839;48.662;13.300;2022-12-18T11:37:34;27.47;;;12.53;;
49946;SDS011;35839;48.662;13.300;2022-12-18T11:40:35;25.27;;;12.70;;
49946;SDS011;35839;48.662;13.300;2022-12-18T11:42:59;29.50;;;11.80;;
49946;SDS011;35839;48.662;13.300;2022-12-18T11:45:33;23.50;;;12.03;;
49946;SDS011;35839;48.662;13.300;2022-12-18T11:48:05;29.53;;;13.07;;
49946;SDS011;35839;48.662;13.300;2022-12-18T11:53:01;31.63;;;14.60;;
49946;SDS011;35839;48.662;13.300;2022-12-18T11:55:35;23.50;;;12.60;;
49946;SDS011;35839;48.662;13.300;2022-12-18T12:00:56;30.27;;;14.27;;
49946;SDS011;35839;48.662;13.300;2022-12-18T12:11:44;29.77;;;14.27;;
49946;SDS011;35839;48.662;13.300;2022-12-18T12:17:11;26.80;;;14.47;;
49946;SDS011;35839;48.662;13.300;2022-12-18T12:22:56;32.03;;;15.77;;
49946;SDS011;35839;48.662;13.300;2022-12-18T12:25:33;34.73;;;15.30;;
49946;SDS011;35839;48.662;13.300;2022-12-18T12:28:29;34.70;;;16.20;;
49946;SDS011;35839;48.662;13.300;2022-12-18T12:31:07;34.70;;;18.77;;
49946;SDS011;35839;48.662;13.300;2022-12-18T12:33:52;47.03;;;17.10;;
49946;SDS011;35839;48.662;13.300;2022-12-18T12:39:23;35.17;;;14.50;;
49946;SDS011;35839;48.662;13.300;2022-12-18T12:41:55;29.83;;;15.80;;
49946;SDS011;35839;48.662;13.300;2022-12-18T12:44:42;28.73;;;15.07;;
49946;SDS011;35839;48.662;13.300;2022-12-18T12:47:16;26.37;;;14.13;;
49946;SDS011;35839;48.662;13.300;2022-12-18T12:49:46;35.10;;;16.73;;
49946;SDS011;35839;48.662;13.300;2022-12-18T12:52:15;35.97;;;16.43;;
49946;SDS011;35839;48.662;13.300;2022-12-18T12:54:53;27.20;;;14.70;;
49946;SDS011;35839;48.662;13.300;2022-12-18T13:05:21;28.07;;;14.70;;
49946;SDS011;35839;48.662;13.300;2022-12-18T13:08:09;29.73;;;13.70;;
49946;SDS011;35839;48.662;13.300;2022-12-18T13:10:39;31.50;;;15.03;;
49946;SDS011;35839;48.662;13.300;2022-12-18T13:13:10;29.60;;;15.20;;
49946;SDS011;35839;48.662;13.300;2022-12-18T13:15:41;29.37;;;16.40;;
49946;SDS011;35839;48.662;13.300;2022-12-18T13:20:37;33.47;;;16.43;;
49946;SDS011;35839;48.662;13.300;2022-12-18T13:25:49;35.03;;;16.73;;
49946;SDS011;35839;48.662;13.300;2022-12-18T13:28:16;31.07;;;15.13;;
49946;SDS011;35839;48.662;13.300;2022-12-18T13:30:46;26.45;;;11.23;;
49946;SDS011;35839;48.662;13.300;2022-12-18T13:43:27;33.03;;;15.75;;
49946;SDS011;35839;48.662;13.300;2022-12-18T13:46:03;36.88;;;17.08;;
49946;SDS011;35839;48.662;13.300;2022-12-18T13:48:41;32.80;;;17.00;;
49946;SDS011;35839;48.662;13.300;2022-12-18T13:51:16;37.23;;;18.50;;
49946;SDS011;35839;48.662;13.300;2022-12-18T13:53:46;39.63;;;19.33;;
49946;SDS011;35839;48.662;13.300;2022-12-18T13:56:15;35.47;;;17.13;;
49946;SDS011;35839;48.662;13.300;2022-12-18T14:04:40;35.03;;;16.57;;
49946;SDS011;35839;48.662;13.300;2022-12-18T14:07:10;42.93;;;18.97;;
49946;SDS011;35839;48.662;13.300;2022-12-18T14:09:40;37.13;;;17.87;;
49946;SDS011;35839;48.662;13.300;2022-12-18T14:12:28;36.90;;;18.03;;
49946;SDS011;35839;48.662;13.300;2022-12-18T14:15:24;33.63;;;16.43;;
49946;SDS011;35839;48.662;13.300;2022-12-18T14:18:00;36.67;;;17.53;;
49946;SDS011;35839;48.662;13.300;2022-12-18T14:20:46;33.00;;;16.37;;
49946;SDS011;35839;48.662;13.300;2022-12-18T14:26:03;31.97;;;15.97;;
49946;SDS011;35839;48.662;13.300;2022-12-18T14:28:53;36.30;;;16.90;;
49946;SDS011;35839;48.662;13.300;2022-12-18T14:31:23;38.67;;;18.30;;
49946;SDS011;35839;48.662;13.300;2022-12-18T14:33:53;40.03;;;18.77;;
49946;SDS011;35839;48.662;13.300;2022-12-18T14:36:19;39.93;;;17.83;;
49946;SDS011;35839;48.662;13.300;2022-12-18T14:38:48;41.37;;;17.90;;
49946;SDS011;35839;48.662;13.300;2022-12-18T14:41:19;38.10;;;17.23;;
49946;SDS011;35839;48.662;13.300;2022-12-18T14:43:46;44.63;;;19.27;;
49946;SDS011;35839;48.662;13.300;2022-12-18T14:46:27;43.87;;;19.93;;
49946;SDS011;35839;48.662;13.300;2022-12-18T14:49:25;38.77;;;20.50;;
49946;SDS011;35839;48.662;13.300;2022-12-18T14:51:56;36.00;;;18.30;;
49946;SDS011;35839;48.662;13.300;2022-12-18T14:54:24;40.93;;;18.23;;
49946;SDS011;35839;48.662;13.300;2022-12-18T14:56:51;38.23;;;15.83;;
49946;SDS011;35839;48.662;13.300;2022-12-18T14:59:30;39.42;;;16.95;;
49946;SDS011;35839;48.662;13.300;2022-12-18T15:01:59;33.40;;;14.63;;
49946;SDS011;35839;48.662;13.300;2022-12-18T15:04:31;35.67;;;14.87;;
49946;SDS011;35839;48.662;13.300;2022-12-18T15:07:11;38.70;;;17.37;;
49946;SDS011;35839;48.662;13.300;2022-12-18T15:09:43;37.03;;;17.77;;
49946;SDS011;35839;48.662;13.300;2022-12-18T15:12:38;36.63;;;16.77;;
49946;SDS011;35839;48.662;13.300;2022-12-18T15:15:43;36.93;;;16.43;;
49946;SDS011;35839;48.662;13.300;2022-12-18T15:18:05;36.00;;;15.50;;
49946;SDS011;35839;48.662;13.300;2022-12-18T15:20:51;32.33;;;16.47;;
49946;SDS011;35839;48.662;13.300;2022-12-18T15:26:08;72.83;;;33.40;;
49946;SDS011;35839;48.662;13.300;2022-12-18T15:28:51;40.20;;;19.20;;
49946;SDS011;35839;48.662;13.300;2022-12-18T15:36:17;32.38;;;13.10;;
49946;SDS011;35839;48.662;13.300;2022-12-18T15:38:47;37.27;;;17.00;;
49946;SDS011;35839;48.662;13.300;2022-12-18T15:41:17;77.00;;;35.87;;
49946;SDS011;35839;48.662;13.300;2022-12-18T15:43:44;53.30;;;22.87;;
49946;SDS011;35839;48.662;13.300;2022-12-18T15:46:12;36.93;;;17.87;;
49946;SDS011;35839;48.662;13.300;2022-12-18T15:48:43;39.20;;;18.27;;
49946;SDS011;35839;48.662;13.300;2022-12-18T15:51:13;35.85;;;15.85;;
49946;SDS011;35839;48.662;13.300;2022-12-18T15:53:42;36.77;;;16.57;;
49946;SDS011;35839;48.662;13.300;2022-12-18T15:56:11;37.03;;;17.27;;
49946;SDS011;35839;48.662;13.300;2022-12-18T15:58:56;39.20;;;17.70;;
49946;SDS011;35839;48.662;13.300;2022-12-18T16:01:22;42.00;;;17.27;;
49946;SDS011;35839;48.662;13.300;2022-12-18T16:03:49;45.83;;;17.60;;
49946;SDS011;35839;48.662;13.300;2022-12-18T16:06:14;45.20;;;19.40;;
49946;SDS011;35839;48.662;13.300;2022-12-18T16:08:39;43.90;;;19.17;;
49946;SDS011;35839;48.662;13.300;2022-12-18T16:11:05;43.23;;;18.17;;
49946;SDS011;35839;48.662;13.300;2022-12-18T16:13:33;43.83;;;17.90;;
49946;SDS011;35839;48.662;13.300;2022-12-18T16:16:00;37.93;;;17.80;;
49946;SDS011;35839;48.662;13.300;2022-12-18T16:18:25;37.50;;;18.00;;
49946;SDS011;35839;48.662;13.300;2022-12-18T16:20:50;47.30;;;18.73;;
49946;SDS011;35839;48.662;13.300;2022-12-18T16:23:16;40.80;;;19.60;;
49946;SDS011;35839;48.662;13.300;2022-12-18T16:25:41;47.37;;;19.17;;
49946;SDS011;35839;48.662;13.300;2022-12-18T16:28:06;42.17;;;19.87;;
49946;SDS011;35839;48.662;13.300;2022-12-18T16:30:32;42.70;;;20.17;;
49946;SDS011;35839;48.662;13.300;2022-12-18T16:32:58;41.90;;;19.00;;
49946;SDS011;35839;48.662;13.300;2022-12-18T16:35:23;38.80;;;18.37;;
49946;SDS011;35839;48.662;13.300;2022-12-18T16:37:50;43.17;;;20.97;;
49946;SDS011;35839;48.662;13.300;2022-12-18T16:40:16;43.33;;;20.47;;
49946;SDS011;35839;48.662;13.300;2022-12-18T16:42:42;42.80;;;19.90;;
49946;SDS011;35839;48.662;13.300;2022-12-18T16:45:10;45.73;;;20.50;;
49946;SDS011;35839;48.662;13.300;2022-12-18T16:47:37;40.00;;;18.77;;
49946;SDS011;35839;48.662;13.300;2022-12-18T16:50:03;44.17;;;19.37;;
49946;SDS011;35839;48.662;13.300;2022-12-18T16:52:29;46.13;;;21.33;;
49946;SDS011;35839;48.662;13.300;2022-12-18T16:54:55;42.80;;;19.97;;
49946;SDS011;35839;48.662;13.300;2022-12-18T16:57:20;41.40;;;18.37;;
49946;SDS011;35839;48.662;13.300;2022-12-18T16:59:46;39.67;;;18.50;;
49946;SDS011;35839;48.662;13.300;2022-12-18T17:02:13;39.30;;;20.63;;
49946;SDS011;35839;48.662;13.300;2022-12-18T17:04:51;37.43;;;18.93;;
49946;SDS011;35839;48.662;13.300;2022-12-18T17:07:18;39.00;;;18.80;;
49946;SDS011;35839;48.662;13.300;2022-12-18T17:09:43;42.07;;;19.03;;
49946;SDS011;35839;48.662;13.300;2022-12-18T17:12:08;46.23;;;19.40;;
49946;SDS011;35839;48.662;13.300;2022-12-18T17:14:35;48.83;;;19.93;;
49946;SDS011;35839;48.662;13.300;2022-12-18T17:17:01;49.83;;;22.37;;
49946;SDS011;35839;48.662;13.300;2022-12-18T17:19:26;48.00;;;20.53;;
49946;SDS011;35839;48.662;13.300;2022-12-18T17:21:52;51.60;;;20.70;;
49946;SDS011;35839;48.662;13.300;2022-12-18T17:24:18;41.67;;;20.60;;
49946;SDS011;35839;48.662;13.300;2022-12-18T17:26:44;44.27;;;21.40;;
49946;SDS011;35839;48.662;13.300;2022-12-18T17:29:14;48.03;;;20.37;;
49946;SDS011;35839;48.662;13.300;2022-12-18T17:31:41;38.33;;;18.00;;
49946;SDS011;35839;48.662;13.300;2022-12-18T17:34:07;36.53;;;18.40;;
49946;SDS011;35839;48.662;13.300;2022-12-18T17:36:34;36.57;;;17.17;;
49946;SDS011;35839;48.662;13.300;2022-12-18T17:39:00;34.30;;;16.40;;
49946;SDS011;35839;48.662;13.300;2022-12-18T17:41:26;32.60;;;17.03;;
49946;SDS011;35839;48.662;13.300;2022-12-18T17:43:54;37.57;;;16.60;;
49946;SDS011;35839;48.662;13.300;2022-12-18T17:46:24;46.40;;;20.00;;
49946;SDS011;35839;48.662;13.300;2022-12-18T17:48:50;41.97;;;19.17;;
49946;SDS011;35839;48.662;13.300;2022-12-18T17:51:17;44.87;;;19.70;;
49946;SDS011;35839;48.662;13.300;2022-12-18T17:53:42;42.97;;;18.77;;
49946;SDS011;35839;48.662;13.300;2022-12-18T17:56:10;43.93;;;19.77;;
49946;SDS011;35839;48.662;13.300;2022-12-18T17:58:38;42.92;;;18.45;;
49946;SDS011;35839;48.662;13.300;2022-12-18T18:01:04;37.80;;;19.47;;
49946;SDS011;35839;48.662;13.300;2022-12-18T18:03:30;42.53;;;19.63;;
49946;SDS011;35839;48.662;13.300;2022-12-18T18:06:00;41.20;;;21.70;;
49946;SDS011;35839;48.662;13.300;2022-12-18T18:08:26;42.65;;;19.75;;
49946;SDS011;35839;48.662;13.300;2022-12-18T18:10:52;35.87;;;17.50;;
49946;SDS011;35839;48.662;13.300;2022-12-18T18:13:23;36.23;;;16.73;;
49946;SDS011;35839;48.662;13.300;2022-12-18T18:16:08;40.03;;;18.85;;
49946;SDS011;35839;48.662;13.300;2022-12-18T18:18:35;41.87;;;20.63;;
49946;SDS011;35839;48.662;13.300;2022-12-18T18:21:04;43.37;;;21.23;;
49946;SDS011;35839;48.662;13.300;2022-12-18T18:26:01;41.23;;;19.53;;
49946;SDS011;35839;48.662;13.300;2022-12-18T18:28:29;40.30;;;19.77;;
49946;SDS011;35839;48.662;13.300;2022-12-18T18:30:55;43.60;;;20.30;;
49946;SDS011;35839;48.662;13.300;2022-12-18T18:33:20;47.47;;;21.13;;
49946;SDS011;35839;48.662;13.300;2022-12-18T18:35:45;46.57;;;22.03;;
49946;SDS011;35839;48.662;13.300;2022-12-18T18:38:11;45.20;;;21.63;;
49946;SDS011;35839;48.662;13.300;2022-12-18T18:40:36;44.47;;;21.97;;
49946;SDS011;35839;48.662;13.300;2022-12-18T18:43:01;45.77;;;20.60;;
49946;SDS011;35839;48.662;13.300;2022-12-18T18:45:27;48.70;;;20.17;;
49946;SDS011;35839;48.662;13.300;2022-12-18T18:47:52;48.23;;;21.97;;
49946;SDS011;35839;48.662;13.300;2022-12-18T18:50:17;41.90;;;19.87;;
49946;SDS011;35839;48.662;13.300;2022-12-18T18:52:43;46.10;;;21.17;;
49946;SDS011;35839;48.662;13.300;2022-12-18T18:55:08;40.33;;;20.93;;
49946;SDS011;35839;48.662;13.300;2022-12-18T18:57:34;47.30;;;22.63;;
49946;SDS011;35839;48.662;13.300;2022-12-18T18:59:59;46.47;;;20.70;;
49946;SDS011;35839;48.662;13.300;2022-12-18T19:02:25;42.37;;;21.80;;
49946;SDS011;35839;48.662;13.300;2022-12-18T19:04:50;42.60;;;20.60;;
49946;SDS011;35839;48.662;13.300;2022-12-18T19:07:16;38.53;;;18.83;;
49946;SDS011;35839;48.662;13.300;2022-12-18T19:09:41;43.93;;;20.90;;
49946;SDS011;35839;48.662;13.300;2022-12-18T19:12:07;47.43;;;21.17;;
49946;SDS011;35839;48.662;13.300;2022-12-18T19:14:52;44.90;;;21.97;;
49946;SDS011;35839;48.662;13.300;2022-12-18T19:17:18;51.07;;;23.63;;
49946;SDS011;35839;48.662;13.300;2022-12-18T19:19:44;54.67;;;23.33;;
49946;SDS011;35839;48.662;13.300;2022-12-18T19:22:09;42.37;;;21.80;;
49946;SDS011;35839;48.662;13.300;2022-12-18T19:24:35;47.10;;;21.73;;
49946;SDS011;35839;48.662;13.300;2022-12-18T19:27:00;50.97;;;21.83;;
49946;SDS011;35839;48.662;13.300;2022-12-18T19:29:26;51.33;;;22.10;;
49946;SDS011;35839;48.662;13.300;2022-12-18T19:31:51;51.70;;;22.43;;
49946;SDS011;35839;48.662;13.300;2022-12-18T19:34:17;48.70;;;20.50;;
49946;SDS011;35839;48.662;13.300;2022-12-18T19:36:42;44.93;;;21.33;;
49946;SDS011;35839;48.662;13.300;2022-12-18T19:39:09;47.40;;;21.27;;
49946;SDS011;35839;48.662;13.300;2022-12-18T19:41:36;45.07;;;23.67;;
49946;SDS011;35839;48.662;13.300;2022-12-18T19:44:02;46.10;;;21.43;;
49946;SDS011;35839;48.662;13.300;2022-12-18T19:46:27;52.10;;;22.40;;
49946;SDS011;35839;48.662;13.300;2022-12-18T19:48:53;48.30;;;22.67;;
49946;SDS011;35839;48.662;13.300;2022-12-18T19:51:22;52.67;;;23.30;;
49946;SDS011;35839;48.662;13.300;2022-12-18T19:53:49;48.07;;;22.70;;
49946;SDS011;35839;48.662;13.300;2022-12-18T19:56:18;45.87;;;22.93;;
49946;SDS011;35839;48.662;13.300;2022-12-18T19:58:45;42.55;;;20.73;;
49946;SDS011;35839;48.662;13.300;2022-12-18T20:01:11;41.53;;;20.40;;
49946;SDS011;35839;48.662;13.300;2022-12-18T20:03:38;49.07;;;22.40;;
49946;SDS011;35839;48.662;13.300;2022-12-18T20:08:42;50.80;;;23.63;;
49946;SDS011;35839;48.662;13.300;2022-12-18T20:11:08;48.17;;;24.57;;
49946;SDS011;35839;48.662;13.300;2022-12-18T20:13:34;46.40;;;23.00;;
49946;SDS011;35839;48.662;13.300;2022-12-18T20:16:00;42.87;;;21.47;;
49946;SDS011;35839;48.662;13.300;2022-12-18T20:18:25;38.03;;;21.07;;
49946;SDS011;35839;48.662;13.300;2022-12-18T20:20:51;51.77;;;21.87;;
49946;SDS011;35839;48.662;13.300;2022-12-18T20:23:17;39.37;;;20.27;;
49946;SDS011;35839;48.662;13.300;2022-12-18T20:25:42;51.90;;;22.33;;
49946;SDS011;35839;48.662;13.300;2022-12-18T20:28:08;45.33;;;20.33;;
49946;SDS011;35839;48.662;13.300;2022-12-18T20:30:33;52.60;;;23.63;;
49946;SDS011;35839;48.662;13.300;2022-12-18T20:32:59;48.07;;;23.17;;
49946;SDS011;35839;48.662;13.300;2022-12-18T20:35:24;46.07;;;21.87;;
49946;SDS011;35839;48.662;13.300;2022-12-18T20:37:52;44.60;;;22.00;;
49946;SDS011;35839;48.662;13.300;2022-12-18T20:40:20;51.30;;;23.23;;
49946;SDS011;35839;48.662;13.300;2022-12-18T20:42:46;55.20;;;24.50;;
49946;SDS011;35839;48.662;13.300;2022-12-18T20:45:12;52.27;;;22.37;;
49946;SDS011;35839;48.662;13.300;2022-12-18T20:47:37;49.67;;;22.97;;
49946;SDS011;35839;48.662;13.300;2022-12-18T20:50:03;62.43;;;23.93;;
49946;SDS011;35839;48.662;13.300;2022-12-18T20:52:29;53.13;;;23.53;;
49946;SDS011;35839;48.662;13.300;2022-12-18T20:54:54;51.77;;;22.20;;
49946;SDS011;35839;48.662;13.300;2022-12-18T20:57:20;46.60;;;22.63;;
49946;SDS011;35839;48.662;13.300;2022-12-18T20:59:46;44.10;;;22.13;;
49946;SDS011;35839;48.662;13.300;2022-12-18T21:02:11;53.90;;;24.60;;
49946;SDS011;35839;48.662;13.300;2022-12-18T21:04:37;47.63;;;22.00;;
49946;SDS011;35839;48.662;13.300;2022-12-18T21:07:03;51.43;;;23.53;;
49946;SDS011;35839;48.662;13.300;2022-12-18T21:09:29;54.57;;;26.03;;
49946;SDS011;35839;48.662;13.300;2022-12-18T21:11:56;47.43;;;24.33;;
49946;SDS011;35839;48.662;13.300;2022-12-18T21:14:40;61.80;;;26.73;;
49946;SDS011;35839;48.662;13.300;2022-12-18T21:17:06;53.93;;;24.80;;
49946;SDS011;35839;48.662;13.300;2022-12-18T21:19:32;52.17;;;23.10;;
49946;SDS011;35839;48.662;13.300;2022-12-18T21:21:57;53.20;;;23.57;;
49946;SDS011;35839;48.662;13.300;2022-12-18T21:24:23;53.73;;;23.93;;
49946;SDS011;35839;48.662;13.300;2022-12-18T21:26:49;46.03;;;21.73;;
49946;SDS011;35839;48.662;13.300;2022-12-18T21:29:16;55.50;;;23.90;;
49946;SDS011;35839;48.662;13.300;2022-12-18T21:31:44;53.20;;;25.30;;
49946;SDS011;35839;48.662;13.300;2022-12-18T21:34:13;51.73;;;23.70;;
49946;SDS011;35839;48.662;13.300;2022-12-18T21:36:40;49.57;;;23.13;;
49946;SDS011;35839;48.662;13.300;2022-12-18T21:39:05;46.37;;;21.37;;
49946;SDS011;35839;48.662;13.300;2022-12-18T21:41:31;52.57;;;23.37;;
49946;SDS011;35839;48.662;13.300;2022-12-18T21:44:15;52.70;;;25.67;;
49946;SDS011;35839;48.662;13.300;2022-12-18T21:46:42;49.00;;;23.27;;
49946;SDS011;35839;48.662;13.300;2022-12-18T21:49:10;47.33;;;23.60;;
49946;SDS011;35839;48.662;13.300;2022-12-18T21:51:38;49.53;;;23.47;;